Kargopol, Russia
Current Conditions -  °F | °C
As of 4:00 AM on Tuesday 23 Dec 2014 (Local Time) from ULPB Reporting Station
NA  
Wind Chill: 12°   Ceiling: NA
Heat Index: 12°   Visibility: 6mi
Dew Point: 10°   Wind: 2mph
Humidity: 92%   Direction: 240°WSW
Pressure: 29.21"   Gusts: NA
Location:  61.5°N, 38.97°E
Report Text: ULPB 230100Z AUTO 24001MPS 9999 ////// M11/M12 Q0989
Loading
Personal Weather Stations






























Interactive Weather Map New forecast layout! Learn more

10-Day Weather Forecast

Advertisements
Track Severe Weather on mobile